Weather at Smederevo Airport

Public forecast

Using degrees Celsius for public forecast. Weather courtesy of forecast.io.

Closest aviation weather report (METAR) to Smederevo Airport

Closest report is Belgrade Nikola Tesla Airport, 29.8 nm (55.1 km) WNW. Retrieved 2021/01/19 11:30 UTC (0 seconds ago):

LYBE 191130Z 19009KT CAVOK 04/M02 Q1024 R12/1///95 NOSIG

Closest aviation forecast (TAF) to Smederevo Airport

Closest forecast is Belgrade Nikola Tesla Airport, 29.8 nm (55.1 km) WNW. Retrieved 2021/01/19 06:25 UTC (5 hours ago):

TAF LYBE 190500Z 1906/2006 18006KT 9999 BKN033 TX01/1912Z TNM03/1906Z